Terminal Aerodrome Forecast
Issued by NWS Binghamton, NY

Home | Current Version | Previous Version | Text Only | Print | Product List | Glossary On
Versions: 1 2 3 4 5 6 7 8 9 10 11 12 13 14 15 16 17 18 19 20 21
000
FTUS41 KBGM 201700
TAFBGM
TAF
KBGM 201739Z 2018/2118 25013G22KT P6SM VCSH SCT025 BKN040
     FM210000 26012G20KT 3SM -SHSN BR BKN025 OVC040
     FM210900 28011G18KT P6SM -SHSN SCT025 BKN035
     FM211500 30012G20KT P6SM VCSH BKN035=

USA.gov is the U.S. government's official web portal to all federal, state and local government web resources and services.